< Typhoon 201715 2017 Season Typhoon 201717 >
Typhoon 201716 (MAWAR)
General InformationTrack Information on Google MapsDetailed Wind InformationForecast History on Google MapsAccess Analytics MapList of All Images || NewsDisaster Info.WeblogTrackbackTyphoon FrontTwiphoonTyphoon Now!Typhoon ImaginationJMA Disaster Info. XMLResourceGoogle EarthGE AnimationAtom FeedGeoJSON
Detalied Best Track (Time Zone = UTC)
Year Month Day Hour Lat. Long. Pressure (hPa) Wind (kt) Class Image Chart
2017 8 30 06 18.9 122.0 1002 0 2 Image Chart
2017 8 30 12 18.9 120.9 1004 0 2 Image Chart
2017 8 30 18 19.0 120.2 1002 0 2 Image Chart
2017 8 31 00 19.3 119.6 1002 0 2 Image Chart
2017 8 31 06 19.6 119.3 1002 0 2 Image Chart
2017 8 31 12 19.8 119.1 1000 0 2 Image Chart
2017 8 31 18 20.0 118.9 998 35 3 Image Chart
2017 9 1 00 20.2 118.7 998 35 3 Image Chart
2017 9 1 06 20.4 118.5 998 35 3 Image Chart
2017 9 1 12 20.7 118.1 996 40 3 Image Chart
2017 9 1 18 20.8 117.7 994 45 3 Image Chart
2017 9 2 00 21.0 117.4 990 50 4 Image Chart
2017 9 2 06 21.2 117.2 990 50 4 Image Chart
2017 9 2 12 21.4 117.0 990 50 4 Image Chart
2017 9 2 18 21.6 116.8 990 50 4 Image Chart
2017 9 3 00 22.0 116.5 990 50 4 Image Chart
2017 9 3 06 22.3 116.3 990 50 4 Image Chart
2017 9 3 12 22.6 116.1 992 45 3 Image Chart
2017 9 3 18 23.1 115.4 1000 35 3 Image Chart
2017 9 4 00 23.5 114.6 1004 0 2 Image Chart
2017 9 4 06 23.5 113.2 1004 0 2 Image Chart
Japan Meteorological Agency Best Track Data | Correction Date : 2017-10-11
< Typhoon 201715 2017 Season Typhoon 201717 >

Help